Time;durP1;ratioP1;P1;durP2;ratioP2;P2;SDS_P1;SDS_P2;PMS_P1;PMS_P2;Temp;Humidity;BMP_temperature;BMP_pressure;BME280_temperature;BME280_humidity;BME280_pressure;Samples;Min_cycle;Max_cycle;Signal;HPM_P1;HPM_P2
2023/06/07 00:01:33;;;;;;;69.80;8.00;;;18.30;8.10;;;;;;4886193;29;20163;-83
2023/06/07 00:03:59;;;;;;;70.47;8.13;;;18.20;15.70;;;;;;4886408;29;20168;-83
2023/06/07 00:06:28;;;;;;;68.90;7.37;;;18.10;19.60;;;;;;4889665;29;20433;-83
2023/06/07 00:08:54;;;;;;;69.87;7.20;;;18.10;17.90;;;;;;4886448;29;20415;-83
2023/06/07 00:11:21;;;;;;;70.90;7.50;;;18.40;1.00;;;;;;4885810;29;20407;-83
2023/06/07 00:13:48;;;;;;;70.97;8.10;;;18.40;2.10;;;;;;4885314;29;20426;-83
2023/06/07 00:16:13;;;;;;;69.10;7.90;;;18.40;1.00;;;;;;4885565;29;20420;-83
2023/06/07 00:18:40;;;;;;;68.67;7.60;;;18.40;7.60;;;;;;4885674;29;20415;-83
2023/06/07 00:21:07;;;;;;;67.97;7.17;;;18.20;15.70;;;;;;4885673;29;20290;-83
2023/06/07 00:23:35;;;;;;;68.23;7.17;;;18.10;19.30;;;;;;4885981;29;20411;-83
2023/06/07 00:26:01;;;;;;;78.70;9.70;;;18.20;17.90;;;;;;4884122;29;20408;-83
2023/06/07 00:28:27;;;;;;;71.30;7.90;;;18.10;17.10;;;;;;4884453;29;20483;-84
2023/06/07 00:30:53;;;;;;;69.20;8.77;;;18.20;16.80;;;;;;4885301;29;20498;-83
2023/06/07 00:33:20;;;;;;;68.87;8.10;;;18.10;19.10;;;;;;4885831;29;20966;-83
2023/06/07 00:35:46;;;;;;;67.90;7.93;;;18.20;13.60;;;;;;4884568;29;20261;-83
2023/06/07 00:38:12;;;;;;;70.70;9.60;;;18.00;19.50;;;;;;4884768;29;20856;-83
2023/06/07 00:40:38;;;;;;;68.50;9.53;;;17.90;26.20;;;;;;4885489;29;20499;-83
2023/06/07 00:43:03;;;;;;;72.10;11.67;;;17.80;28.80;;;;;;4885287;29;20174;-83
2023/06/07 00:45:29;;;;;;;70.50;10.17;;;17.80;28.20;;;;;;4885074;29;20178;-83
2023/06/07 00:47:55;;;;;;;72.17;10.67;;;17.70;26.40;;;;;;4885446;29;20221;-83
2023/06/07 00:50:21;;;;;;;70.37;10.50;;;17.90;25.40;;;;;;4885569;29;20175;-83
2023/06/07 00:52:47;;;;;;;68.60;8.43;;;17.90;22.90;;;;;;4885072;29;20407;-83
2023/06/07 00:55:13;;;;;;;71.10;7.50;;;18.10;16.80;;;;;;4885176;29;20226;-83
2023/06/07 00:57:40;;;;;;;68.73;7.27;;;18.20;12.70;;;;;;4884840;29;20469;-83
2023/06/07 01:00:10;;;;;;;69.20;7.00;;;18.10;15.10;;;;;;4885277;29;20498;-83
2023/06/07 01:02:35;;;;;;;71.40;8.27;;;18.30;6.20;;;;;;4868842;29;20486;-83
2023/06/07 01:05:03;;;;;;;69.00;7.97;;;18.10;11.10;;;;;;4884454;29;20879;-83
2023/06/07 01:07:29;;;;;;;71.30;8.37;;;18.10;13.60;;;;;;4883047;29;20281;-83
2023/06/07 01:09:55;;;;;;;69.77;8.43;;;18.00;16.50;;;;;;4884618;29;20919;-83
2023/06/07 01:12:23;;;;;;;69.03;7.43;;;18.00;19.80;;;;;;4884566;29;20559;-83
2023/06/07 01:14:49;;;;;;;70.33;8.23;;;18.00;18.10;;;;;;4884610;29;20447;-83
2023/06/07 01:17:24;;;;;;;69.90;7.63;;;18.10;10.00;;;;;;4885215;29;20486;-83
2023/06/07 01:19:53;;;;;;;69.57;8.00;;;18.20;6.80;;;;;;4884607;29;20768;-83
2023/06/07 01:22:24;;;;;;;69.73;7.67;;;18.30;5.30;;;;;;4884755;29;20407;-83
2023/06/07 01:24:50;;;;;;;72.67;8.80;;;18.30;1.30;;;;;;4884880;29;20414;-83
2023/06/07 01:27:17;;;;;;;70.53;7.83;;;18.30;9.10;;;;;;4884316;29;21041;-83
2023/06/07 01:29:44;;;;;;;68.47;7.40;;;18.30;1.70;;;;;;4884534;29;20420;-83
2023/06/07 01:32:12;;;;;;;71.40;6.87;;;18.20;6.40;;;;;;4885008;29;20454;-83
2023/06/07 01:34:38;;;;;;;70.07;8.43;;;18.20;5.80;;;;;;4883155;29;21014;-83
2023/06/07 01:37:05;;;;;;;69.90;8.10;;;18.30;3.70;;;;;;4884579;29;20474;-83
2023/06/07 01:39:31;;;;;;;71.90;8.60;;;18.30;7.00;;;;;;4884344;29;20418;-83
2023/06/07 01:41:58;;;;;;;71.77;9.63;;;18.10;14.00;;;;;;4884038;29;20407;-83
2023/06/07 01:44:25;;;;;;;73.40;13.20;;;17.90;20.00;;;;;;4882836;29;20417;-83
2023/06/07 01:46:51;;;;;;;71.27;12.90;;;17.80;25.30;;;;;;4884117;29;20930;-83
2023/06/07 01:49:21;;;;;;;74.70;10.33;;;17.90;21.50;;;;;;4882843;29;20526;-83
2023/06/07 01:51:46;;;;;;;70.67;14.57;;;18.00;20.20;;;;;;4883747;29;20210;-83
2023/06/07 01:54:14;;;;;;;75.30;13.13;;;17.90;27.50;;;;;;4884410;29;20419;-83
2023/06/07 01:57:16;;;;;;;75.90;9.97;;;18.00;19.60;;;;;;4884092;29;20203;-83
2023/06/07 02:00:10;;;;;;;70.27;11.07;;;18.20;14.10;;;;;;4884054;29;20447;-83
2023/06/07 02:02:48;;;;;;;69.77;10.50;;;18.20;22.60;;;;;;4884077;29;20462;-83
2023/06/07 02:05:20;;;;;;;72.27;14.60;;;18.20;17.40;;;;;;4884167;29;20391;-83
2023/06/07 02:07:50;;;;;;;73.17;20.03;;;18.10;24.60;;;;;;4884119;29;20514;-83
2023/06/07 02:10:23;;;;;;;76.90;21.07;;;18.00;29.70;;;;;;4883643;29;20411;-83
2023/06/07 02:12:52;;;;;;;76.33;23.20;;;18.00;28.50;;;;;;4883856;29;20415;-83
2023/06/07 02:15:18;;;;;;;73.30;17.00;;;18.00;27.20;;;;;;4884024;29;20422;-83
2023/06/07 02:17:57;;;;;;;76.73;22.60;;;18.20;16.80;;;;;;4883814;29;20467;-83
2023/06/07 02:20:26;;;;;;;72.17;15.37;;;18.30;25.80;;;;;;4883628;29;20395;-83
2023/06/07 02:22:52;;;;;;;74.63;18.10;;;18.30;19.30;;;;;;4883591;29;20434;-83
2023/06/07 02:25:18;;;;;;;76.57;26.60;;;18.30;18.50;;;;;;4882056;29;20426;-83
2023/06/07 02:27:44;;;;;;;76.87;28.50;;;18.20;29.30;;;;;;4883391;29;20444;-83
2023/06/07 02:30:10;;;;;;;85.00;37.87;;;18.10;31.30;;;;;;4883631;29;20438;-83
2023/06/07 02:32:38;;;;;;;81.53;36.53;;;18.00;39.10;;;;;;4884225;29;20175;-83
2023/06/07 02:35:07;;;;;;;81.87;40.33;;;18.00;37.50;;;;;;4883692;29;20427;-83
2023/06/07 02:37:33;;;;;;;80.90;36.40;;;18.00;43.30;;;;;;4883690;29;20463;-83
2023/06/07 02:39:59;;;;;;;84.33;40.30;;;18.10;36.50;;;;;;4883992;29;20518;-83
2023/06/07 02:42:24;;;;;;;80.70;37.93;;;18.10;40.70;;;;;;4887436;29;20173;-83
2023/06/07 02:44:50;;;;;;;81.13;37.30;;;18.20;40.50;;;;;;4887239;29;20256;-83
2023/06/07 02:47:15;;;;;;;81.17;40.13;;;18.10;39.40;;;;;;4887030;29;20191;-83
2023/06/07 02:49:41;;;;;;;82.90;39.70;;;18.20;39.40;;;;;;4886920;29;20175;-83
2023/06/07 02:52:08;;;;;;;82.80;38.07;;;18.20;41.10;;;;;;4887195;29;20179;-83
2023/06/07 02:54:34;;;;;;;81.57;38.17;;;18.10;50.50;;;;;;4887501;29;20648;-83
2023/06/07 02:57:00;;;;;;;82.57;41.00;;;18.20;42.20;;;;;;4887441;29;20488;-83
2023/06/07 02:59:26;;;;;;;86.40;44.03;;;18.20;44.10;;;;;;4886956;29;20439;-83
2023/06/07 03:01:53;;;;;;;81.40;40.70;;;18.20;44.40;;;;;;4887204;29;20407;-83
2023/06/07 03:04:22;;;;;;;83.07;43.90;;;18.20;39.30;;;;;;4887158;29;20472;-83
2023/06/07 03:06:51;;;;;;;81.20;41.93;;;18.30;42.10;;;;;;4887182;29;20459;-83
2023/06/07 03:09:18;;;;;;;82.93;39.50;;;18.30;41.80;;;;;;4886700;29;20471;-83
2023/06/07 03:11:44;;;;;;;81.27;41.90;;;18.30;35.50;;;;;;4885086;29;20438;-83
2023/06/07 03:14:10;;;;;;;84.43;37.13;;;18.20;45.10;;;;;;4886818;29;20412;-83
2023/06/07 03:16:36;;;;;;;80.43;40.17;;;18.30;35.40;;;;;;4886998;29;20203;-83
2023/06/07 03:19:01;;;;;;;83.87;42.80;;;18.40;37.80;;;;;;4886637;29;20186;-83
2023/06/07 03:21:27;;;;;;;91.10;40.60;;;18.50;34.10;;;;;;4886470;29;20182;-83
2023/06/07 03:23:53;;;;;;;84.27;42.20;;;18.40;37.50;;;;;;4886988;29;20179;-83
2023/06/07 03:26:19;;;;;;;80.73;41.30;;;18.30;45.40;;;;;;4886603;29;20171;-83
2023/06/07 03:28:48;;;;;;;79.77;35.33;;;18.30;49.60;;;;;;4886529;29;20159;-83
2023/06/07 03:31:14;;;;;;;77.87;30.20;;;18.30;52.90;;;;;;4885477;29;20419;-83
2023/06/07 03:33:40;;;;;;;79.90;35.60;;;18.20;58.60;;;;;;4886690;29;20410;-83
2023/06/07 03:36:07;;;;;;;78.93;30.63;;;18.30;49.80;;;;;;4886234;29;20173;-82
2023/06/07 03:38:33;;;;;;;78.87;32.40;;;18.30;56.30;;;;;;4886820;29;20466;-83
2023/06/07 03:40:59;;;;;;;82.03;30.70;;;18.20;65.90;;;;;;4886561;29;20808;-83
2023/06/07 03:43:24;;;;;;;80.27;31.13;;;18.20;68.30;;;;;;4886239;29;20558;-83
2023/06/07 03:45:50;;;;;;;79.50;30.47;;;18.10;68.70;;;;;;4886301;29;20187;-83
2023/06/07 03:48:16;;;;;;;80.53;27.93;;;18.20;71.30;;;;;;4886545;29;20190;-83
2023/06/07 03:50:42;;;;;;;77.67;30.47;;;18.30;67.50;;;;;;4886400;29;20445;-83
2023/06/07 03:53:07;;;;;;;82.13;31.30;;;18.30;65.70;;;;;;4950945;23;20230;-80
2023/06/07 03:55:33;;;;;;;81.40;26.27;;;18.30;64.20;;;;;;4884582;29;20175;-80
2023/06/07 03:57:59;;;;;;;79.97;28.10;;;18.30;61.60;;;;;;4884036;29;20199;-81
2023/06/07 04:00:27;;;;;;;78.40;25.80;;;18.50;55.90;;;;;;4883787;29;20178;-80
2023/06/07 04:02:53;;;;;;;85.93;30.63;;;18.50;55.20;;;;;;4884107;29;20451;-81
2023/06/07 04:05:19;;;;;;;83.67;26.87;;;18.50;62.40;;;;;;4885466;29;20408;-81
2023/06/07 04:07:47;;;;;;;80.20;25.47;;;18.50;59.90;;;;;;4884710;29;20427;-81
2023/06/07 04:10:13;;;;;;;79.20;29.20;;;18.50;56.50;;;;;;4885330;29;20420;-81
2023/06/07 04:12:41;;;;;;;80.47;28.60;;;18.60;52.40;;;;;;4883508;29;20551;-81
2023/06/07 04:15:07;;;;;;;80.50;24.40;;;18.60;56.40;;;;;;4884969;29;20498;-80
2023/06/07 04:17:33;;;;;;;76.73;22.70;;;18.60;56.90;;;;;;4883261;29;20542;-80
2023/06/07 04:19:58;;;;;;;83.00;27.67;;;18.60;61.40;;;;;;4884932;29;20174;-80
2023/06/07 04:22:25;;;;;;;77.80;28.10;;;18.60;64.70;;;;;;4885061;29;20165;-81
2023/06/07 04:24:51;;;;;;;79.27;21.27;;;18.50;72.00;;;;;;4885475;29;20163;-80
2023/06/07 04:27:18;;;;;;;85.77;23.33;;;18.50;67.00;;;;;;4882935;29;20447;-80
2023/06/07 04:29:48;;;;;;;82.93;26.43;;;18.60;64.30;;;;;;4884776;29;20407;-80
2023/06/07 04:32:18;;;;;;;78.07;21.30;;;18.60;60.80;;;;;;4882986;29;20408;-80
2023/06/07 04:34:45;;;;;;;80.13;22.57;;;18.70;61.50;;;;;;4884832;29;20424;-80
2023/06/07 04:37:12;;;;;;;73.40;19.93;;;18.70;62.80;;;;;;4883129;29;20455;-80
2023/06/07 04:39:40;;;;;;;82.20;20.97;;;18.70;65.20;;;;;;4884486;29;20412;-80
2023/06/07 04:42:07;;;;;;;78.40;22.83;;;18.60;70.00;;;;;;4884496;29;20776;-80
2023/06/07 04:44:33;;;;;;;74.83;20.97;;;18.60;69.90;;;;;;4884505;29;20506;-80
2023/06/07 04:47:01;;;;;;;77.23;22.60;;;18.60;69.20;;;;;;4884733;29;20473;-80
2023/06/07 04:49:27;;;;;;;78.67;23.50;;;18.60;72.00;;;;;;4884010;29;20577;-81
2023/06/07 04:51:52;;;;;;;79.80;20.67;;;18.60;75.00;;;;;;4882696;29;20456;-80
2023/06/07 04:54:19;;;;;;;84.00;21.80;;;18.50;74.10;;;;;;4883907;29;20182;-80
2023/06/07 04:56:45;;;;;;;76.17;20.70;;;18.50;78.50;;;;;;4882645;29;20876;-80
2023/06/07 04:59:11;;;;;;;76.43;19.53;;;18.40;75.00;;;;;;4882600;29;20434;-80
2023/06/07 05:01:37;;;;;;;80.63;18.80;;;18.50;73.30;;;;;;4882628;29;20411;-80
2023/06/07 05:04:02;;;;;;;74.47;16.20;;;18.50;73.90;;;;;;4883692;29;20633;-80
2023/06/07 05:06:31;;;;;;;76.03;18.30;;;18.50;67.10;;;;;;4882171;29;20230;-80
2023/06/07 05:08:56;;;;;;;79.33;17.47;;;18.60;69.80;;;;;;4882765;29;20950;-80
2023/06/07 05:11:22;;;;;;;75.87;15.50;;;18.60;60.70;;;;;;4883597;29;20414;-80
2023/06/07 05:13:48;;;;;;;76.73;18.80;;;18.60;66.80;;;;;;4882235;29;20175;-80
2023/06/07 05:16:16;;;;;;;77.73;17.43;;;18.60;66.40;;;;;;4883370;29;20170;-80
2023/06/07 05:18:46;;;;;;;79.17;17.43;;;18.70;62.10;;;;;;4884017;29;20635;-80
2023/06/07 05:21:12;;;;;;;78.77;19.00;;;18.70;63.60;;;;;;4882305;29;20502;-80
2023/06/07 05:23:38;;;;;;;77.60;19.67;;;18.80;58.00;;;;;;4883903;29;20415;-79
2023/06/07 05:26:04;;;;;;;79.93;17.80;;;18.80;57.90;;;;;;4883256;29;20753;-79
2023/06/07 05:28:29;;;;;;;80.10;17.77;;;18.80;61.70;;;;;;4883286;29;20175;-79
2023/06/07 05:30:56;;;;;;;77.87;18.10;;;18.90;57.00;;;;;;4881990;29;20192;-79
2023/06/07 05:33:22;;;;;;;78.50;16.73;;;18.90;58.60;;;;;;4883834;29;20171;-79
2023/06/07 05:35:47;;;;;;;80.30;21.00;;;18.90;57.50;;;;;;4882051;29;20411;-79
2023/06/07 05:38:13;;;;;;;80.40;19.17;;;19.00;54.60;;;;;;4883176;29;20241;-80
2023/06/07 05:40:39;;;;;;;76.50;19.40;;;19.00;53.80;;;;;;4881908;29;20472;-79
2023/06/07 05:43:06;;;;;;;79.40;20.10;;;19.00;53.90;;;;;;4881672;29;20183;-79
2023/06/07 05:45:31;;;;;;;80.33;19.00;;;19.00;52.80;;;;;;4882953;29;20303;-79
2023/06/07 05:47:57;;;;;;;75.20;18.73;;;19.00;61.60;;;;;;4881625;29;20484;-79
2023/06/07 05:50:24;;;;;;;79.30;21.03;;;19.00;56.90;;;;;;4881647;29;20167;-79
2023/06/07 05:52:56;;;;;;;79.17;19.63;;;19.00;58.40;;;;;;4883062;29;20588;-80
2023/06/07 05:55:25;;;;;;;82.00;20.57;;;19.00;54.80;;;;;;4881907;29;20508;-79
2023/06/07 05:57:52;;;;;;;77.73;18.37;;;19.00;54.60;;;;;;4882345;29;20461;-80
2023/06/07 06:00:18;;;;;;;77.47;17.83;;;18.90;57.50;;;;;;4881758;29;20820;-79
2023/06/07 06:02:47;;;;;;;73.87;17.00;;;18.80;62.40;;;;;;4882490;29;20415;-80
2023/06/07 06:05:13;;;;;;;76.80;15.03;;;18.80;60.20;;;;;;4882077;29;20427;-80
2023/06/07 06:07:39;;;;;;;80.50;16.43;;;18.80;62.10;;;;;;4883177;29;20477;-81
2023/06/07 06:10:05;;;;;;;76.47;16.30;;;18.80;61.00;;;;;;4885226;29;20422;-81
2023/06/07 06:12:31;;;;;;;76.63;15.67;;;18.90;57.30;;;;;;4883267;29;20231;-81
2023/06/07 06:14:57;;;;;;;85.57;18.30;;;18.80;56.80;;;;;;4883329;29;20820;-81
2023/06/07 06:17:23;;;;;;;74.83;17.20;;;18.90;55.30;;;;;;4883709;29;20983;-81
2023/06/07 06:19:48;;;;;;;74.07;14.70;;;18.70;55.70;;;;;;4883622;29;20177;-81
2023/06/07 06:22:14;;;;;;;78.60;15.30;;;18.70;61.30;;;;;;4883754;29;20408;-81
2023/06/07 06:24:40;;;;;;;75.87;13.47;;;18.60;60.90;;;;;;4882872;29;20186;-81
2023/06/07 06:27:06;;;;;;;77.57;13.53;;;18.70;59.60;;;;;;4884074;29;20514;-81
2023/06/07 06:29:32;;;;;;;73.57;13.57;;;18.70;62.10;;;;;;4882581;29;20187;-81
2023/06/07 06:31:59;;;;;;;83.70;13.67;;;18.70;61.20;;;;;;4883843;29;20425;-81
2023/06/07 06:34:25;;;;;;;93.43;14.70;;;18.60;61.30;;;;;;4882524;29;20415;-81
2023/06/07 06:36:51;;;;;;;84.07;15.90;;;18.70;60.10;;;;;;4883276;29;20482;-81
2023/06/07 06:39:16;;;;;;;74.77;13.43;;;18.80;56.40;;;;;;4884128;29;20175;-80
2023/06/07 06:41:42;;;;;;;77.53;13.40;;;18.80;56.30;;;;;;4883627;29;20174;-81
2023/06/07 06:44:08;;;;;;;76.23;14.60;;;18.80;56.30;;;;;;4882335;29;20179;-81
2023/06/07 06:46:34;;;;;;;79.87;12.80;;;19.00;51.80;;;;;;4882007;29;20474;-81
2023/06/07 06:49:00;;;;;;;74.47;13.73;;;18.90;53.80;;;;;;4883721;29;20238;-81
2023/06/07 06:51:25;;;;;;;78.00;15.90;;;19.00;53.30;;;;;;4882953;29;20928;-81
2023/06/07 06:53:51;;;;;;;79.80;14.23;;;19.00;53.00;;;;;;4881756;29;20235;-81
2023/06/07 06:56:17;;;;;;;77.13;13.43;;;19.00;50.50;;;;;;4883005;29;20234;-81
2023/06/07 06:58:42;;;;;;;76.00;13.83;;;19.00;49.80;;;;;;4881922;29;20648;-81
2023/06/07 07:01:14;;;;;;;75.87;14.60;;;19.20;49.90;;;;;;4882267;29;20176;-81
2023/06/07 07:03:40;;;;;;;74.90;14.80;;;19.20;46.20;;;;;;4883393;29;20191;-81
2023/06/07 07:06:07;;;;;;;74.90;15.47;;;19.20;47.60;;;;;;4883586;29;20518;-80
2023/06/07 07:08:34;;;;;;;85.60;15.73;;;19.10;46.90;;;;;;4882047;29;20420;-79
2023/06/07 07:11:00;;;;;;;74.40;15.37;;;19.10;50.10;;;;;;4880834;29;20427;-79
2023/06/07 07:13:26;;;;;;;78.43;15.17;;;19.30;47.20;;;;;;4882016;29;20499;-79
2023/06/07 07:15:52;;;;;;;76.50;17.80;;;19.30;45.60;;;;;;4880715;29;20643;-79
2023/06/07 07:18:17;;;;;;;81.23;18.63;;;19.20;42.50;;;;;;4881450;29;20195;-79
2023/06/07 07:20:45;;;;;;;74.30;16.33;;;19.10;43.60;;;;;;4882016;29;20165;-79
2023/06/07 07:23:11;;;;;;;76.00;15.40;;;19.10;45.60;;;;;;4881956;29;20935;-79
2023/06/07 07:25:37;;;;;;;76.10;16.37;;;19.00;45.20;;;;;;4881894;29;20403;-79
2023/06/07 07:28:03;;;;;;;75.47;15.10;;;19.00;43.60;;;;;;4885539;29;20439;-79
2023/06/07 07:30:29;;;;;;;77.30;17.07;;;19.10;46.30;;;;;;4885780;29;20223;-79
2023/06/07 07:32:57;;;;;;;79.10;15.87;;;19.10;45.30;;;;;;4885317;29;20414;-79
2023/06/07 07:35:23;;;;;;;74.77;14.40;;;19.20;46.40;;;;;;4885267;29;20776;-79
2023/06/07 07:37:50;;;;;;;76.80;15.40;;;19.20;46.90;;;;;;4884737;29;20987;-80
2023/06/07 07:40:16;;;;;;;76.10;15.23;;;19.20;44.40;;;;;;4885476;29;20408;-79
2023/06/07 07:42:41;;;;;;;73.90;13.20;;;19.10;49.40;;;;;;4885330;29;20767;-79
2023/06/07 07:45:08;;;;;;;81.70;15.17;;;19.10;48.60;;;;;;4883620;29;20415;-79
2023/06/07 07:47:34;;;;;;;81.00;12.03;;;19.20;47.70;;;;;;4884853;29;20274;-79
2023/06/07 07:50:00;;;;;;;75.37;11.30;;;19.10;52.20;;;;;;4885186;29;20937;-79
2023/06/07 07:52:26;;;;;;;71.10;10.93;;;19.00;63.10;;;;;;4885117;29;20175;-79
2023/06/07 07:54:52;;;;;;;75.73;11.73;;;19.00;69.20;;;;;;4884939;29;20395;-79
2023/06/07 07:57:18;;;;;;;76.90;11.17;;;19.00;69.60;;;;;;4884236;29;20451;-79
2023/06/07 07:59:43;;;;;;;72.07;12.90;;;18.90;73.60;;;;;;4883554;29;20181;-78
2023/06/07 08:02:10;;;;;;;82.33;15.17;;;19.00;74.20;;;;;;4883473;29;20178;-79
2023/06/07 08:04:35;;;;;;;84.77;14.77;;;19.00;76.40;;;;;;4883560;29;20171;-79
2023/06/07 08:07:01;;;;;;;83.73;14.80;;;19.10;60.80;;;;;;4884945;29;20427;-79
2023/06/07 08:09:27;;;;;;;84.03;15.30;;;19.10;60.60;;;;;;4884536;29;20214;-79
2023/06/07 08:11:53;;;;;;;77.90;13.87;;;19.00;64.20;;;;;;4884295;29;20407;-79
2023/06/07 08:14:18;;;;;;;77.33;13.40;;;19.00;70.50;;;;;;4884767;29;20175;-78
2023/06/07 08:16:44;;;;;;;76.33;11.23;;;19.00;69.70;;;;;;4884161;29;20198;-79
2023/06/07 08:19:10;;;;;;;77.37;13.20;;;19.10;68.10;;;;;;4884097;29;20162;-79
2023/06/07 08:21:37;;;;;;;76.90;11.70;;;19.10;71.80;;;;;;4882674;29;20426;-79
2023/06/07 08:24:03;;;;;;;75.10;12.00;;;19.30;67.60;;;;;;4884698;29;20557;-79
2023/06/07 08:26:30;;;;;;;75.07;11.73;;;19.50;60.90;;;;;;4884315;29;20431;-79
2023/06/07 08:28:55;;;;;;;77.67;11.23;;;19.60;56.70;;;;;;4884743;29;20816;-79
2023/06/07 08:31:22;;;;;;;74.17;12.27;;;19.70;55.00;;;;;;4884378;29;20411;-79
2023/06/07 08:33:49;;;;;;;74.40;11.17;;;19.80;49.80;;;;;;4884063;29;20163;-79
2023/06/07 08:36:15;;;;;;;73.80;12.80;;;19.80;49.20;;;;;;4883918;29;20412;-79
2023/06/07 08:38:41;;;;;;;75.47;14.00;;;19.90;45.40;;;;;;4883214;29;20456;-79
2023/06/07 08:41:07;;;;;;;74.77;14.20;;;19.90;42.30;;;;;;4882827;29;20174;-79
2023/06/07 08:43:33;;;;;;;73.63;14.43;;;19.90;41.50;;;;;;4884944;29;20414;-79
2023/06/07 08:46:03;;;;;;;78.03;14.00;;;19.90;45.40;;;;;;4885149;29;20408;-79
2023/06/07 08:48:30;;;;;;;77.67;14.43;;;20.10;45.60;;;;;;4883129;29;20488;-80
2023/06/07 08:50:56;;;;;;;75.63;13.70;;;20.10;37.60;;;;;;4883209;29;20460;-80
2023/06/07 08:53:28;;;;;;;81.13;15.30;;;20.20;40.00;;;;;;4883169;29;20491;-79
2023/06/07 08:55:54;;;;;;;79.97;16.87;;;20.40;34.40;;;;;;4884822;29;20400;-79
2023/06/07 08:58:24;;;;;;;76.33;16.10;;;20.50;29.10;;;;;;4884286;29;20453;-79
2023/06/07 09:00:51;;;;;;;79.23;18.57;;;20.60;28.00;;;;;;4883547;29;21033;-78
2023/06/07 09:03:16;;;;;;;79.17;18.13;;;20.70;27.00;;;;;;4883985;29;20413;-79
2023/06/07 09:05:43;;;;;;;81.67;20.27;;;21.00;30.70;;;;;;4882930;29;20418;-79
2023/06/07 09:08:08;;;;;;;79.47;21.40;;;21.20;21.70;;;;;;4883282;29;20199;-80
2023/06/07 09:10:34;;;;;;;77.53;19.10;;;21.10;18.20;;;;;;4883281;29;20821;-79
2023/06/07 09:13:00;;;;;;;76.20;21.53;;;21.10;20.50;;;;;;4884410;29;20523;-80
2023/06/07 09:15:27;;;;;;;80.10;20.93;;;21.10;18.50;;;;;;4884021;29;20201;-79
2023/06/07 09:18:02;;;;;;;77.40;20.93;;;21.20;21.10;;;;;;4882864;29;20592;-79
2023/06/07 09:20:30;;;;;;;87.33;20.80;;;21.20;23.80;;;;;;4882493;29;20998;-79
2023/06/07 09:23:02;;;;;;;77.00;19.70;;;21.20;24.20;;;;;;4882048;29;20854;-79
2023/06/07 09:25:30;;;;;;;76.80;20.10;;;21.30;22.20;;;;;;4883688;29;20380;-79
2023/06/07 09:27:56;;;;;;;80.60;21.60;;;21.30;19.90;;;;;;4883258;29;20485;-79
2023/06/07 09:30:22;;;;;;;78.90;20.17;;;21.30;17.90;;;;;;4883052;29;20415;-79
2023/06/07 09:32:48;;;;;;;77.10;23.40;;;21.30;24.50;;;;;;4883872;29;20461;-79
2023/06/07 09:35:16;;;;;;;83.23;23.80;;;21.60;15.50;;;;;;4883590;29;20487;-79
2023/06/07 09:37:47;;;;;;;79.80;19.80;;;21.60;15.10;;;;;;4883329;29;20213;-79
2023/06/07 09:40:13;;;;;;;78.27;17.63;;;21.80;7.10;;;;;;4883239;29;20388;-80
2023/06/07 09:42:40;;;;;;;75.30;15.87;;;21.80;2.40;;;;;;4883082;29;20399;-79
2023/06/07 09:45:14;;;;;;;72.87;14.60;;;21.90;4.30;;;;;;4883361;29;20510;-79
2023/06/07 09:47:41;;;;;;;79.27;16.20;;;22.10;1.00;;;;;;4883297;29;20427;-79
2023/06/07 09:50:09;;;;;;;78.70;16.40;;;22.30;1.00;;;;;;4882940;29;20419;-79
2023/06/07 09:52:35;;;;;;;73.90;13.63;;;22.40;1.00;;;;;;4947496;23;20491;-82
2023/06/07 09:55:03;;;;;;;83.87;15.90;;;22.70;1.00;;;;;;4883487;29;20398;-82
2023/06/07 09:57:32;;;;;;;76.67;16.20;;;22.80;1.00;;;;;;4882170;29;20205;-82
2023/06/07 10:00:07;;;;;;;75.40;16.30;;;22.80;1.00;;;;;;4882996;29;20415;-82
2023/06/07 10:02:32;;;;;;;75.60;16.47;;;22.80;1.00;;;;;;4881790;29;20400;-82
2023/06/07 10:05:00;;;;;;;77.10;17.97;;;22.60;1.00;;;;;;4882402;29;20409;-83
2023/06/07 10:07:46;;;;;;;78.63;16.87;;;22.60;1.00;;;;;;4881105;29;20195;-83
2023/06/07 10:10:17;;;;;;;78.27;19.60;;;22.40;1.00;;;;;;4883253;29;20497;-82
2023/06/07 10:12:45;;;;;;;81.00;19.13;;;22.60;1.00;;;;;;4882327;29;20506;-82
2023/06/07 10:15:20;;;;;;;76.60;19.03;;;22.20;1.00;;;;;;4883519;29;20417;-83
2023/06/07 10:17:55;;;;;;;77.07;17.83;;;22.10;1.00;;;;;;4883964;29;20446;-83
2023/06/07 10:20:29;;;;;;;77.07;17.43;;;22.00;1.00;;;;;;4884223;29;20467;-83
2023/06/07 10:23:04;;;;;;;78.00;15.80;;;21.50;1.00;;;;;;4882899;29;20406;-83
2023/06/07 10:25:54;;;;;;;75.40;14.90;;;21.40;1.30;;;;;;4884762;29;20399;-83
2023/06/07 10:28:32;;;;;;;79.13;15.33;;;21.40;1.10;;;;;;4883538;29;20435;-83
2023/06/07 10:31:05;;;;;;;77.00;14.80;;;21.60;3.20;;;;;;4882740;29;20408;-84
2023/06/07 10:33:35;;;;;;;75.87;15.77;;;22.00;1.00;;;;;;4882304;29;20428;-83
2023/06/07 10:36:07;;;;;;;77.93;17.93;;;22.20;1.00;;;;;;4884500;29;20414;-84
2023/06/07 10:38:37;;;;;;;77.73;16.33;;;22.30;1.00;;;;;;4884146;29;20439;-84
2023/06/07 10:41:07;;;;;;;80.77;18.93;;;21.90;1.00;;;;;;4883438;29;20423;-84
2023/06/07 10:43:40;;;;;;;82.70;18.30;;;21.40;2.10;;;;;;4883288;29;20945;-82
2023/06/07 10:46:28;;;;;;;82.40;22.17;;;21.10;7.60;;;;;;4883058;29;20475;-82
2023/06/07 10:48:56;;;;;;;76.57;20.23;;;20.90;16.00;;;;;;4882561;29;20388;-83
2023/06/07 10:51:51;;;;;;;85.23;24.90;;;20.70;19.40;;;;;;4882666;29;20409;-83
2023/06/07 10:54:30;;;;;;;79.97;21.70;;;20.50;26.10;;;;;;4882178;29;20440;-81
2023/06/07 10:57:00;;;;;;;77.30;19.63;;;20.40;32.20;;;;;;4880725;29;20887;-82
2023/06/07 10:59:28;;;;;;;82.20;21.40;;;20.30;34.20;;;;;;4881840;29;20750;-82
2023/06/07 11:02:23;;;;;;;75.53;14.83;;;20.30;32.70;;;;;;4881421;29;20415;-82
2023/06/07 11:04:49;;;;;;;78.53;13.57;;;20.20;44.00;;;;;;4884891;29;20394;-81
2023/06/07 11:07:30;;;;;;;77.33;14.97;;;20.20;47.90;;;;;;4883048;29;20501;-82
2023/06/07 11:10:05;;;;;;;79.40;15.60;;;20.40;39.90;;;;;;4882929;29;20542;-82
2023/06/07 11:13:24;;;;;;;;;;;;;;;;;;;;;
2023/06/07 11:16:53;;;;;;;;;;;;;;;;;;;;;
2023/06/07 11:19:19;;;;;;;78.03;15.47;;;20.30;40.30;;;;;;4857915;29;20451;-82
2023/06/07 11:22:03;;;;;;;77.17;14.83;;;20.30;40.90;;;;;;4883333;29;20495;-82
2023/06/07 11:24:40;;;;;;;76.00;12.30;;;20.00;43.60;;;;;;4885839;29;20389;-82
2023/06/07 11:29:50;;;;;;;77.67;14.10;;;20.20;47.90;;;;;;4956503;23;20998;-83
2023/06/07 11:32:16;;;;;;;82.73;13.77;;;20.30;46.90;;;;;;4885063;29;20445;-82
2023/06/07 11:34:56;;;;;;;81.13;16.77;;;20.40;46.10;;;;;;4885746;29;20413;-83
2023/06/07 11:37:22;;;;;;;78.87;15.60;;;20.50;40.00;;;;;;4885338;29;20546;-82
2023/06/07 11:39:48;;;;;;;81.70;17.50;;;20.40;41.90;;;;;;4883693;29;20436;-83
2023/06/07 11:42:14;;;;;;;79.77;15.10;;;20.50;39.50;;;;;;4887083;29;20478;-83
2023/06/07 11:44:40;;;;;;;78.37;15.83;;;20.50;43.40;;;;;;4886504;29;20575;-83
2023/06/07 11:47:07;;;;;;;81.00;17.40;;;20.60;40.80;;;;;;4886647;29;20215;-83
2023/06/07 11:49:35;;;;;;;82.20;18.43;;;20.50;43.80;;;;;;4886478;29;20831;-83
2023/06/07 11:52:01;;;;;;;81.47;17.57;;;20.40;46.40;;;;;;4886493;29;20415;-84
2023/06/07 11:54:27;;;;;;;81.10;17.27;;;20.20;52.00;;;;;;4886243;29;20405;-83
2023/06/07 11:56:53;;;;;;;79.80;17.17;;;20.30;54.70;;;;;;4886569;29;20455;-83
2023/06/07 11:59:23;;;;;;;85.80;17.63;;;20.40;53.60;;;;;;4887044;29;20421;-83
2023/06/07 12:01:53;;;;;;;84.83;18.23;;;20.50;51.80;;;;;;4886206;29;20404;-83
2023/06/07 12:04:23;;;;;;;84.03;18.17;;;20.40;56.40;;;;;;4885985;29;20934;-84
2023/06/07 12:06:49;;;;;;;83.20;18.23;;;20.50;54.80;;;;;;4886062;29;20435;-83
2023/06/07 12:09:18;;;;;;;82.10;19.03;;;20.70;51.50;;;;;;4886177;29;20423;-83
2023/06/07 12:11:45;;;;;;;84.50;20.60;;;21.10;47.90;;;;;;4886410;29;20400;-83
2023/06/07 12:14:11;;;;;;;83.40;21.40;;;21.40;29.40;;;;;;4886989;29;20828;-84
2023/06/07 12:16:38;;;;;;;85.17;20.50;;;21.30;33.30;;;;;;4887208;29;20433;-84
2023/06/07 12:19:05;;;;;;;86.50;22.53;;;21.30;32.00;;;;;;4885556;29;20485;-84
2023/06/07 12:21:34;;;;;;;83.27;22.00;;;21.40;29.50;;;;;;4885654;29;20792;-84
2023/06/07 12:24:03;;;;;;;85.27;21.93;;;21.50;29.30;;;;;;4886689;29;20436;-84
2023/06/07 12:26:29;;;;;;;83.90;23.07;;;21.50;30.00;;;;;;4887016;29;20533;-84
2023/06/07 12:29:01;;;;;;;92.07;25.43;;;21.70;22.70;;;;;;4885580;29;20462;-83
2023/06/07 12:31:29;;;;;;;86.00;23.73;;;21.60;23.40;;;;;;4886105;29;20252;-84
2023/06/07 12:34:05;;;;;;;83.93;22.30;;;21.50;26.20;;;;;;4886767;29;20402;-84
2023/06/07 12:36:35;;;;;;;81.20;21.83;;;21.40;26.10;;;;;;4885807;29;20434;-83
2023/06/07 12:41:39;;;;;;;87.37;21.17;;;21.60;39.10;;;;;;4675155;23;20483;-83